createdAt,value
2022-12-05T00:00:32.446Z,13.70
2022-12-05T00:02:59.028Z,13.30
2022-12-05T00:05:25.539Z,13.93
2022-12-05T00:07:52.105Z,13.43
2022-12-05T00:10:18.698Z,13.67
2022-12-05T00:12:45.193Z,13.80
2022-12-05T00:15:12.541Z,15.80
2022-12-05T00:17:39.564Z,14.23
2022-12-05T00:20:06.142Z,15.87
2022-12-05T00:22:32.715Z,14.63
2022-12-05T00:24:59.287Z,14.83
2022-12-05T00:27:25.855Z,15.00
2022-12-05T00:29:52.356Z,14.73
2022-12-05T00:32:19.078Z,14.60
2022-12-05T00:34:45.782Z,14.80
2022-12-05T00:37:12.327Z,14.53
2022-12-05T00:39:39.154Z,15.73
2022-12-05T00:42:05.763Z,13.20
2022-12-05T00:44:32.259Z,13.30
2022-12-05T00:46:58.789Z,14.27
2022-12-05T00:49:25.304Z,13.23
2022-12-05T00:51:51.939Z,13.70
2022-12-05T00:54:18.428Z,14.40
2022-12-05T00:56:45.021Z,14.20
2022-12-05T00:59:11.579Z,13.80
2022-12-05T01:01:38.170Z,14.67
2022-12-05T01:04:04.866Z,13.40
2022-12-05T01:06:31.357Z,13.93
2022-12-05T01:08:57.951Z,14.07
2022-12-05T01:11:24.474Z,14.57
2022-12-05T01:13:50.966Z,12.97
2022-12-05T01:16:17.503Z,15.53
2022-12-05T01:18:44.113Z,15.77
2022-12-05T01:21:10.663Z,14.40
2022-12-05T01:23:37.199Z,12.60
2022-12-05T01:26:03.687Z,14.50
2022-12-05T01:28:30.248Z,12.47
2022-12-05T01:30:56.820Z,13.60
2022-12-05T01:33:23.341Z,14.80
2022-12-05T01:35:49.898Z,13.17
2022-12-05T01:38:16.405Z,13.57
2022-12-05T01:40:42.972Z,13.60
2022-12-05T01:43:09.497Z,14.93
2022-12-05T01:45:36.046Z,13.13
2022-12-05T01:48:02.615Z,15.60
2022-12-05T01:50:29.365Z,12.40
2022-12-05T01:52:55.869Z,15.63
2022-12-05T01:55:22.436Z,13.80
2022-12-05T01:57:49.003Z,13.23
2022-12-05T02:00:15.734Z,14.97
2022-12-05T02:02:42.270Z,14.90
2022-12-05T02:05:08.843Z,13.80
2022-12-05T02:07:35.380Z,14.90
2022-12-05T02:10:01.946Z,15.00
2022-12-05T02:12:28.534Z,14.43
2022-12-05T02:14:55.168Z,16.77
2022-12-05T02:17:21.657Z,13.43
2022-12-05T02:19:49.231Z,15.77
2022-12-05T02:22:15.731Z,14.37
2022-12-05T02:24:42.302Z,13.93
2022-12-05T02:27:08.880Z,14.87
2022-12-05T02:29:35.379Z,15.10
2022-12-05T02:32:01.882Z,13.80
2022-12-05T02:34:28.411Z,13.87
2022-12-05T02:36:55.054Z,13.27
2022-12-05T02:39:21.642Z,14.80
2022-12-05T02:41:48.138Z,15.50
2022-12-05T02:44:14.641Z,13.80
2022-12-05T02:46:41.232Z,17.10
2022-12-05T02:49:07.736Z,14.37
2022-12-05T02:51:51.637Z,14.77
2022-12-05T02:54:18.162Z,13.77
2022-12-05T02:56:44.667Z,13.67
2022-12-05T02:59:11.203Z,13.70
2022-12-05T03:01:37.869Z,12.87
2022-12-05T03:04:04.504Z,13.53
2022-12-05T03:06:31.078Z,13.00
2022-12-05T03:08:57.692Z,13.80
2022-12-05T03:11:24.240Z,12.90
2022-12-05T03:13:50.793Z,13.07
2022-12-05T03:16:17.359Z,12.80
2022-12-05T03:18:43.898Z,13.37
2022-12-05T03:21:10.421Z,12.40
2022-12-05T03:23:36.966Z,12.93
2022-12-05T03:26:03.484Z,11.57
2022-12-05T03:28:30.083Z,11.70
2022-12-05T03:30:56.719Z,12.37
2022-12-05T03:33:23.253Z,10.77
2022-12-05T03:35:49.778Z,12.47
2022-12-05T03:38:16.280Z,11.50
2022-12-05T03:40:42.776Z,12.97
2022-12-05T03:43:09.261Z,10.23
2022-12-05T03:45:35.772Z,10.80
2022-12-05T03:48:02.402Z,10.63
2022-12-05T03:50:28.935Z,10.83
2022-12-05T03:53:18.496Z,11.00
2022-12-05T03:55:41.931Z,11.10
2022-12-05T03:58:08.489Z,10.50
2022-12-05T04:00:35.019Z,9.80
2022-12-05T04:03:01.925Z,14.10
2022-12-05T04:05:28.466Z,11.53
2022-12-05T04:07:55.020Z,10.10
2022-12-05T04:10:21.545Z,9.90
2022-12-05T04:12:48.309Z,10.83
2022-12-05T04:15:14.818Z,10.27
2022-12-05T04:17:41.308Z,11.00
2022-12-05T04:20:26.719Z,11.67
2022-12-05T04:22:53.236Z,10.10
2022-12-05T04:25:35.095Z,10.60
2022-12-05T04:28:01.614Z,10.20
2022-12-05T04:30:28.112Z,9.87
2022-12-05T04:32:54.610Z,9.43
2022-12-05T04:35:21.188Z,8.00
2022-12-05T04:37:47.690Z,9.83
2022-12-05T04:40:14.176Z,8.20
2022-12-05T04:42:40.658Z,8.57
2022-12-05T04:45:07.994Z,8.33
2022-12-05T04:47:34.559Z,7.43
2022-12-05T04:50:01.114Z,7.97
2022-12-05T04:52:28.374Z,7.70
2022-12-05T04:54:54.907Z,7.73
2022-12-05T04:57:21.432Z,6.90
2022-12-05T04:59:47.935Z,6.77
2022-12-05T05:02:14.460Z,7.60
2022-12-05T05:04:40.993Z,8.70
2022-12-05T05:07:07.499Z,8.60
2022-12-05T05:09:34.157Z,7.97
2022-12-05T05:12:00.668Z,6.70
2022-12-05T05:14:27.139Z,7.20
2022-12-05T05:16:53.632Z,8.07
2022-12-05T05:19:20.151Z,9.80
2022-12-05T05:21:46.839Z,8.43
2022-12-05T05:24:13.757Z,8.27
2022-12-05T05:26:40.250Z,7.30
2022-12-05T05:29:06.782Z,8.20
2022-12-05T05:31:33.363Z,7.57
2022-12-05T05:34:05.875Z,8.33
2022-12-05T05:36:35.590Z,6.70
2022-12-05T05:39:02.182Z,6.20
2022-12-05T05:41:28.713Z,7.70
2022-12-05T05:43:55.283Z,8.07
2022-12-05T05:46:21.871Z,7.40
2022-12-05T05:48:48.411Z,6.90
2022-12-05T05:51:14.930Z,7.17
2022-12-05T05:53:41.415Z,7.27
2022-12-05T05:56:07.879Z,6.40
2022-12-05T05:58:34.420Z,7.47
2022-12-05T06:01:00.929Z,6.83
2022-12-05T06:03:27.568Z,7.00
2022-12-05T06:05:54.187Z,7.57
2022-12-05T06:08:20.774Z,6.70
2022-12-05T06:10:47.306Z,6.23
2022-12-05T06:13:13.810Z,6.67
2022-12-05T06:15:40.292Z,6.23
2022-12-05T06:18:06.854Z,7.17
2022-12-05T06:20:33.329Z,6.80
2022-12-05T06:22:59.959Z,7.00
2022-12-05T06:25:26.451Z,6.77
2022-12-05T06:27:52.954Z,6.03
2022-12-05T06:30:19.528Z,5.60
2022-12-05T06:32:46.032Z,6.73
2022-12-05T06:35:15.737Z,6.00
2022-12-05T06:37:42.305Z,6.47
2022-12-05T06:40:08.766Z,6.47
2022-12-05T06:42:35.293Z,6.10
2022-12-05T06:45:01.750Z,7.27
2022-12-05T06:47:28.362Z,7.93
2022-12-05T06:49:55.059Z,6.83
2022-12-05T06:52:21.710Z,7.17
2022-12-05T06:54:52.140Z,7.40
2022-12-05T06:57:18.643Z,6.57
2022-12-05T06:59:45.222Z,5.67
2022-12-05T07:02:11.777Z,7.87
2022-12-05T07:04:38.337Z,6.13
2022-12-05T07:07:04.891Z,7.13
2022-12-05T07:09:48.155Z,6.30
2022-12-05T07:12:14.690Z,6.00
2022-12-05T07:14:49.697Z,6.00
2022-12-05T07:17:16.819Z,6.73
2022-12-05T07:19:43.434Z,5.50
2022-12-05T07:22:15.452Z,6.20
2022-12-05T07:24:42.400Z,6.33
2022-12-05T07:27:08.913Z,5.90
2022-12-05T07:29:35.409Z,5.10
2022-12-05T07:32:01.952Z,6.07
2022-12-05T07:34:28.559Z,5.73
2022-12-05T07:36:55.081Z,5.80
2022-12-05T07:39:21.606Z,5.80
2022-12-05T07:41:48.085Z,6.37
2022-12-05T07:44:14.653Z,6.00
2022-12-05T07:46:41.198Z,5.53
2022-12-05T07:49:07.803Z,5.70
2022-12-05T07:51:35.341Z,6.03
2022-12-05T07:54:01.841Z,5.80
2022-12-05T07:56:28.314Z,5.90
2022-12-05T07:58:54.846Z,5.83
2022-12-05T08:01:21.482Z,6.10
2022-12-05T08:03:48.022Z,5.60
2022-12-05T08:06:14.518Z,6.00
2022-12-05T08:08:41.015Z,6.50
2022-12-05T08:11:07.498Z,5.57
2022-12-05T08:13:34.066Z,6.47
2022-12-05T08:16:00.530Z,6.63
2022-12-05T08:18:27.663Z,6.60
2022-12-05T08:20:54.256Z,5.40
2022-12-05T08:23:20.750Z,4.27
2022-12-05T08:25:47.241Z,5.20
2022-12-05T08:28:13.718Z,4.90
2022-12-05T08:30:40.250Z,4.87
2022-12-05T08:33:06.749Z,4.70
2022-12-05T08:35:33.234Z,4.77
2022-12-05T08:37:59.811Z,5.00
2022-12-05T08:40:26.481Z,7.00
2022-12-05T08:42:52.962Z,7.30
2022-12-05T08:45:19.436Z,6.63
2022-12-05T08:47:45.897Z,7.63
2022-12-05T08:50:12.452Z,10.10
2022-12-05T08:52:38.955Z,8.60
2022-12-05T08:55:05.431Z,7.73
2022-12-05T08:57:31.998Z,6.50
2022-12-05T08:59:58.667Z,7.30
2022-12-05T09:02:25.280Z,7.90
2022-12-05T09:04:54.941Z,7.37
2022-12-05T09:07:21.568Z,8.03
2022-12-05T09:09:48.060Z,7.53
2022-12-05T09:12:14.826Z,6.93
2022-12-05T09:14:41.377Z,6.50
2022-12-05T09:17:08.297Z,7.57
2022-12-05T09:19:34.808Z,6.60
2022-12-05T09:22:01.314Z,7.50
2022-12-05T09:24:28.084Z,7.73
2022-12-05T09:26:54.605Z,7.60
2022-12-05T09:29:21.092Z,8.87
2022-12-05T09:31:47.726Z,8.97
2022-12-05T09:34:15.045Z,8.40
2022-12-05T09:36:41.585Z,8.30
2022-12-05T09:39:08.325Z,7.13
2022-12-05T09:41:53.725Z,7.10
2022-12-05T09:44:20.267Z,6.43
2022-12-05T09:46:46.780Z,5.67
2022-12-05T09:49:13.314Z,5.50
2022-12-05T09:51:39.798Z,5.17
2022-12-05T09:54:06.265Z,5.17
2022-12-05T09:56:32.761Z,5.10
2022-12-05T09:59:00.796Z,5.20
2022-12-05T10:01:30.400Z,5.40
2022-12-05T10:03:56.938Z,6.50
2022-12-05T10:06:23.429Z,6.43
2022-12-05T10:08:49.908Z,5.03
2022-12-05T10:11:16.413Z,5.57
2022-12-05T10:13:43.003Z,6.90
2022-12-05T10:16:10.351Z,4.83
2022-12-05T10:18:40.043Z,5.17
2022-12-05T10:21:06.541Z,5.20
2022-12-05T10:26:19.663Z,5.30
2022-12-05T10:28:46.115Z,7.03
2022-12-05T10:31:12.670Z,6.00
2022-12-05T10:33:39.359Z,7.60
2022-12-05T10:36:05.888Z,7.10
2022-12-05T10:38:32.446Z,6.27
2022-12-05T10:40:58.975Z,6.73
2022-12-05T10:43:25.545Z,5.73
2022-12-05T10:45:52.111Z,6.40
2022-12-05T10:48:18.629Z,9.07
2022-12-05T10:50:45.265Z,9.60
2022-12-05T10:53:11.761Z,9.70
2022-12-05T10:55:38.296Z,9.47
2022-12-05T10:58:04.829Z,10.93
2022-12-05T11:00:31.384Z,10.57
2022-12-05T11:02:58.031Z,5.37
2022-12-05T11:05:24.765Z,4.60
2022-12-05T11:07:51.389Z,4.70
2022-12-05T11:10:21.153Z,5.13
2022-12-05T11:12:51.570Z,4.87
2022-12-05T11:15:19.434Z,4.77
2022-12-05T11:17:45.915Z,4.90
2022-12-05T11:20:12.517Z,5.67
2022-12-05T11:22:39.994Z,5.57
2022-12-05T11:25:08.703Z,6.03
2022-12-05T11:27:35.314Z,6.27
2022-12-05T11:30:01.920Z,6.83
2022-12-05T11:32:28.566Z,6.00
2022-12-05T11:34:55.075Z,5.73
2022-12-05T11:37:21.587Z,6.47
2022-12-05T11:39:48.112Z,7.03
2022-12-05T11:42:14.751Z,6.07
2022-12-05T11:44:41.265Z,5.53
2022-12-05T11:47:07.833Z,6.60
2022-12-05T11:49:34.381Z,5.80
2022-12-05T11:52:00.889Z,6.83
2022-12-05T11:55:02.915Z,6.20
2022-12-05T11:57:13.894Z,6.03
2022-12-05T11:59:40.387Z,5.43
2022-12-05T12:02:07.061Z,5.50
2022-12-05T12:04:33.648Z,5.47
2022-12-05T12:07:00.161Z,5.13
2022-12-05T12:09:26.738Z,5.57
2022-12-05T12:11:53.266Z,5.97
2022-12-05T12:14:20.039Z,5.77
2022-12-05T12:16:46.635Z,6.50
2022-12-05T12:19:13.156Z,6.60
2022-12-05T12:21:39.653Z,6.60
2022-12-05T12:24:06.142Z,5.70
2022-12-05T12:26:33.421Z,6.77
2022-12-05T12:28:59.923Z,6.00
2022-12-05T12:31:26.556Z,6.60
2022-12-05T12:33:53.147Z,6.53
2022-12-05T12:36:19.707Z,6.40
2022-12-05T12:38:51.218Z,8.07
2022-12-05T12:41:18.061Z,6.73
2022-12-05T12:43:53.621Z,9.07
2022-12-05T12:46:20.870Z,6.87
2022-12-05T12:48:47.515Z,6.00
2022-12-05T12:51:14.055Z,7.23
2022-12-05T12:53:40.674Z,6.33
2022-12-05T12:56:08.336Z,6.27
2022-12-05T12:58:34.835Z,6.93
2022-12-05T13:01:01.584Z,6.33
2022-12-05T13:03:28.467Z,8.20
2022-12-05T13:05:55.002Z,8.97
2022-12-05T13:08:22.236Z,8.60
2022-12-05T13:10:49.153Z,6.60
2022-12-05T13:13:15.663Z,6.60
2022-12-05T13:15:44.469Z,8.77
2022-12-05T13:18:11.093Z,8.20
2022-12-05T13:20:37.603Z,12.40
2022-12-05T13:23:07.895Z,9.33
2022-12-05T13:25:34.777Z,7.40
2022-12-05T13:28:01.299Z,8.27
2022-12-05T13:30:28.254Z,8.40
2022-12-05T13:32:54.911Z,7.77
2022-12-05T13:35:40.110Z,7.80
2022-12-05T13:38:25.144Z,11.13
2022-12-05T13:41:10.500Z,9.97
2022-12-05T13:43:37.010Z,9.37
2022-12-05T13:46:03.604Z,9.40
2022-12-05T13:48:30.418Z,7.60
2022-12-05T13:50:57.109Z,7.67
2022-12-05T13:53:23.605Z,6.23
2022-12-05T13:55:50.110Z,6.93
2022-12-05T13:58:16.604Z,14.47
2022-12-05T14:00:43.122Z,6.50
2022-12-05T14:03:15.268Z,6.90
2022-12-05T14:05:41.854Z,7.87
2022-12-05T14:08:08.377Z,7.30
2022-12-05T14:10:34.884Z,6.57
2022-12-05T14:13:01.484Z,5.90
2022-12-05T14:15:28.547Z,5.90
2022-12-05T14:17:55.083Z,7.20
2022-12-05T14:20:21.566Z,8.70
2022-12-05T14:22:48.107Z,9.90
2022-12-05T14:25:14.663Z,10.00
2022-12-05T14:27:42.004Z,18.70
2022-12-05T14:30:10.230Z,9.17
2022-12-05T14:32:36.787Z,6.20
2022-12-05T14:35:03.359Z,4.97
2022-12-05T14:37:29.976Z,4.53
2022-12-05T14:39:56.890Z,5.43
2022-12-05T14:42:23.684Z,5.30
2022-12-05T14:44:50.172Z,5.03
2022-12-05T14:47:16.657Z,5.30
2022-12-05T14:49:48.427Z,4.67
2022-12-05T14:52:15.117Z,6.07
2022-12-05T14:54:41.621Z,6.10
2022-12-05T14:57:08.114Z,6.93
2022-12-05T14:59:34.588Z,13.27
2022-12-05T15:02:01.178Z,7.33
2022-12-05T15:04:27.749Z,7.23
2022-12-05T15:06:54.287Z,7.80
2022-12-05T15:09:36.392Z,11.73
2022-12-05T15:12:09.358Z,9.00
2022-12-05T15:14:36.299Z,6.47
2022-12-05T15:17:02.788Z,6.27
2022-12-05T15:19:29.916Z,7.00
2022-12-05T15:21:56.627Z,5.30
2022-12-05T15:24:23.234Z,7.10
2022-12-05T15:26:49.786Z,6.97
2022-12-05T15:29:16.356Z,5.47
2022-12-05T15:31:42.885Z,5.63
2022-12-05T15:34:09.377Z,8.53
2022-12-05T15:36:36.723Z,6.40
2022-12-05T15:39:03.208Z,5.00
2022-12-05T15:41:29.714Z,5.70
2022-12-05T15:43:56.424Z,5.97
2022-12-05T15:46:27.499Z,6.00
2022-12-05T15:48:54.118Z,5.37
2022-12-05T15:51:20.746Z,5.37
2022-12-05T15:53:47.252Z,5.47
2022-12-05T15:56:14.094Z,6.37
2022-12-05T15:58:40.608Z,5.80
2022-12-05T16:01:07.150Z,7.20
2022-12-05T16:03:33.733Z,6.00
2022-12-05T16:06:00.536Z,5.83
2022-12-05T16:08:35.474Z,7.10
2022-12-05T16:11:02.021Z,6.87
2022-12-05T16:13:28.622Z,5.60
2022-12-05T16:15:55.266Z,5.60
2022-12-05T16:18:21.839Z,5.03
2022-12-05T16:20:48.357Z,5.60
2022-12-05T16:23:15.373Z,4.87
2022-12-05T16:25:42.750Z,5.77
2022-12-05T16:28:09.240Z,4.77
2022-12-05T16:30:35.784Z,5.87
2022-12-05T16:33:02.342Z,4.63
2022-12-05T16:35:28.889Z,5.27
2022-12-05T16:37:55.451Z,5.63
2022-12-05T16:40:22.218Z,4.27
2022-12-05T16:42:48.819Z,4.37
2022-12-05T16:45:15.322Z,5.17
2022-12-05T16:47:41.902Z,5.13
2022-12-05T16:50:08.435Z,4.90
2022-12-05T16:52:34.946Z,5.27
2022-12-05T16:55:01.664Z,5.27
2022-12-05T16:57:28.371Z,6.87
2022-12-05T16:59:54.922Z,4.73
2022-12-05T17:02:21.610Z,5.43
2022-12-05T17:04:48.224Z,6.30
2022-12-05T17:07:14.824Z,5.27
2022-12-05T17:09:41.394Z,5.50
2022-12-05T17:12:08.016Z,5.97
2022-12-05T17:14:34.759Z,4.60
2022-12-05T17:17:01.312Z,5.13
2022-12-05T17:19:28.861Z,5.03
2022-12-05T17:21:55.416Z,5.00
2022-12-05T17:24:22.216Z,5.70
2022-12-05T17:26:48.902Z,4.47
2022-12-05T17:29:15.467Z,5.20
2022-12-05T17:31:42.254Z,5.30
2022-12-05T17:34:08.796Z,5.37
2022-12-05T17:36:35.337Z,5.17
2022-12-05T17:39:01.842Z,5.10
2022-12-05T17:41:28.411Z,6.13
2022-12-05T17:43:55.009Z,11.80
2022-12-05T17:46:21.643Z,7.30
2022-12-05T17:48:48.288Z,5.50
2022-12-05T17:51:14.902Z,7.07
2022-12-05T17:53:41.559Z,7.83
2022-12-05T17:56:08.177Z,6.10
2022-12-05T17:58:34.723Z,6.60
2022-12-05T18:01:02.305Z,6.60
2022-12-05T18:03:28.970Z,4.33
2022-12-05T18:05:55.536Z,5.47
2022-12-05T18:08:22.196Z,4.30
2022-12-05T18:10:48.829Z,5.80
2022-12-05T18:13:15.418Z,5.50
2022-12-05T18:15:43.307Z,6.03
2022-12-05T18:18:09.960Z,5.40
2022-12-05T18:20:36.517Z,6.33
2022-12-05T18:23:03.125Z,6.73
2022-12-05T18:25:31.855Z,6.17
2022-12-05T18:27:58.399Z,5.20
2022-12-05T18:30:24.888Z,6.27
2022-12-05T18:32:51.837Z,6.10
2022-12-05T18:35:18.537Z,5.87
2022-12-05T18:37:45.186Z,7.10
2022-12-05T18:40:12.807Z,7.17
2022-12-05T18:42:39.319Z,7.87
2022-12-05T18:45:05.858Z,6.10
2022-12-05T18:47:32.435Z,7.40
2022-12-05T18:50:00.396Z,7.17
2022-12-05T18:55:16.929Z,8.47
2022-12-05T18:57:44.431Z,9.90
2022-12-05T19:00:10.992Z,9.07
2022-12-05T19:02:43.064Z,8.60
2022-12-05T19:05:10.872Z,8.37
2022-12-05T19:07:37.427Z,11.20
2022-12-05T19:10:04.119Z,7.77
2022-12-05T19:12:30.688Z,8.40
2022-12-05T19:14:57.381Z,10.50
2022-12-05T19:17:24.684Z,6.10
2022-12-05T19:19:52.226Z,5.20
2022-12-05T19:22:18.754Z,5.80
2022-12-05T19:24:45.265Z,5.70
2022-12-05T19:27:12.039Z,5.00
2022-12-05T19:29:38.529Z,5.73
2022-12-05T19:32:05.134Z,6.20
2022-12-05T19:34:31.681Z,7.03
2022-12-05T19:36:58.295Z,6.30
2022-12-05T19:39:26.767Z,5.83
2022-12-05T19:41:55.116Z,6.33
2022-12-05T19:44:24.702Z,7.93
2022-12-05T19:46:54.850Z,7.40
2022-12-05T19:49:22.984Z,8.00
2022-12-05T19:51:49.622Z,6.33
2022-12-05T19:54:21.775Z,6.40
2022-12-05T19:56:48.294Z,8.50
2022-12-05T19:59:15.840Z,7.20
2022-12-05T20:01:42.450Z,6.93
2022-12-05T20:04:09.326Z,8.60
2022-12-05T20:06:35.807Z,8.50
2022-12-05T20:09:02.310Z,8.77
2022-12-05T20:11:31.924Z,9.70
2022-12-05T20:13:58.556Z,8.47
2022-12-05T20:16:29.346Z,11.07
2022-12-05T20:19:00.974Z,6.17
2022-12-05T20:21:27.553Z,9.67
2022-12-05T20:23:54.534Z,9.00
2022-12-05T20:26:21.040Z,8.97
2022-12-05T20:28:47.585Z,8.20
2022-12-05T20:31:14.178Z,9.23
2022-12-05T20:33:40.825Z,8.00
2022-12-05T20:36:07.360Z,7.93
2022-12-05T20:38:37.002Z,8.40
2022-12-05T20:41:06.910Z,8.23
2022-12-05T20:43:33.448Z,6.47
2022-12-05T20:45:59.982Z,6.53
2022-12-05T20:48:27.888Z,6.93
2022-12-05T20:50:54.615Z,8.10
2022-12-05T20:53:21.236Z,8.63
2022-12-05T20:55:47.730Z,9.17
2022-12-05T20:58:14.362Z,12.90
2022-12-05T21:00:40.961Z,11.63
2022-12-05T21:03:07.503Z,14.10
2022-12-05T21:05:34.021Z,16.07
2022-12-05T21:08:00.621Z,13.67
2022-12-05T21:10:27.146Z,12.47
2022-12-05T21:12:53.671Z,9.80
2022-12-05T21:15:20.197Z,13.20
2022-12-05T21:17:46.791Z,11.80
2022-12-05T21:20:13.314Z,11.70
2022-12-05T21:22:39.796Z,11.80
2022-12-05T21:25:06.327Z,12.20
2022-12-05T21:27:32.809Z,10.27
2022-12-05T21:29:59.572Z,11.20
2022-12-05T21:32:26.187Z,8.13
2022-12-05T21:34:52.694Z,6.73
2022-12-05T21:37:19.257Z,6.30
2022-12-05T21:39:45.752Z,8.30
2022-12-05T21:42:12.281Z,8.20
2022-12-05T21:44:39.611Z,6.37
2022-12-05T21:47:06.095Z,6.20
2022-12-05T21:49:32.654Z,6.93
2022-12-05T21:51:59.146Z,6.50
2022-12-05T21:54:25.804Z,6.43
2022-12-05T21:56:52.303Z,6.87
2022-12-05T21:59:18.833Z,5.40
2022-12-05T22:01:46.302Z,5.87
2022-12-05T22:04:12.836Z,5.50
2022-12-05T22:06:39.436Z,6.63
2022-12-05T22:09:05.995Z,6.50
2022-12-05T22:11:32.588Z,6.17
2022-12-05T22:13:59.153Z,6.60
2022-12-05T22:16:32.498Z,7.40
2022-12-05T22:18:59.877Z,5.87
2022-12-05T22:21:26.405Z,6.30
2022-12-05T22:23:52.928Z,5.93
2022-12-05T22:26:19.448Z,6.80
2022-12-05T22:28:45.991Z,5.90
2022-12-05T22:31:12.627Z,5.53
2022-12-05T22:33:39.201Z,5.73
2022-12-05T22:36:05.755Z,5.70
2022-12-05T22:38:35.324Z,4.60
2022-12-05T22:41:01.953Z,5.60
2022-12-05T22:43:28.535Z,5.10
2022-12-05T22:45:55.015Z,7.20
2022-12-05T22:48:21.540Z,5.80
2022-12-05T22:50:48.158Z,5.63
2022-12-05T22:53:15.035Z,5.87
2022-12-05T22:55:41.556Z,6.30
2022-12-05T22:58:08.084Z,7.50
2022-12-05T23:00:34.638Z,8.57
2022-12-05T23:03:01.216Z,8.70
2022-12-05T23:05:27.800Z,7.93
2022-12-05T23:07:54.412Z,7.80
2022-12-05T23:10:21.009Z,10.03
2022-12-05T23:12:47.553Z,10.00
2022-12-05T23:15:14.110Z,8.07
2022-12-05T23:17:41.276Z,8.73
2022-12-05T23:20:07.852Z,8.13
2022-12-05T23:22:34.783Z,7.10
2022-12-05T23:25:01.375Z,8.00
2022-12-05T23:27:27.894Z,9.70
2022-12-05T23:29:54.420Z,7.50
2022-12-05T23:32:20.961Z,7.57
2022-12-05T23:34:47.536Z,6.87
2022-12-05T23:37:14.068Z,6.70
2022-12-05T23:39:40.568Z,7.70
2022-12-05T23:42:12.128Z,5.90
2022-12-05T23:44:41.555Z,6.73
2022-12-05T23:47:08.093Z,6.47
2022-12-05T23:49:34.615Z,6.10
2022-12-05T23:52:01.119Z,6.47
2022-12-05T23:54:27.701Z,5.73
2022-12-05T23:56:54.278Z,6.50
2022-12-05T23:59:20.769Z,6.07
